Time;durP1;ratioP1;P1;durP2;ratioP2;P2;SDS_P1;SDS_P2;PMS_P1;PMS_P2;Temp;Humidity;BMP_temperature;BMP_pressure;BME280_temperature;BME280_humidity;BME280_pressure;Samples;Min_cycle;Max_cycle;Signal;HPM_P1;HPM_P2
2021/06/03 00:00:32;;;;;;;0.38;0.35;;;;;;;21.98;47.16;100940.25;5063658;28;20032;-32
2021/06/03 00:02:58;;;;;;;0.23;0.23;;;;;;;21.97;47.45;100948.28;5075977;28;20032;-35
2021/06/03 00:05:29;;;;;;;7.57;1.13;;;;;;;22.02;47.21;100946.34;5078819;28;20416;-34
2021/06/03 00:07:55;;;;;;;0.10;0.10;;;;;;;22.01;47.05;100941.09;5076411;28;20025;-38
2021/06/03 00:10:26;;;;;;;0.47;0.35;;;;;;;21.88;47.38;100933.44;5083834;28;20055;-38
2021/06/03 00:12:53;;;;;;;1.67;0.65;;;;;;;21.68;47.30;100941.97;5082528;28;20485;-36
2021/06/03 00:15:19;;;;;;;;;;;;;;;21.79;47.36;100936.38;5083733;28;20045;-39
2021/06/03 00:17:45;;;;;;;0.10;0.10;;;;;;;21.77;47.25;100937.31;5079402;28;19916;-36
2021/06/03 00:20:14;;;;;;;0.10;0.10;;;;;;;21.77;47.22;100935.53;5082083;28;20052;-35
2021/06/03 00:22:40;;;;;;;1.25;1.00;;;;;;;21.80;47.32;100937.25;5083616;28;20285;-35
2021/06/03 00:25:06;;;;;;;0.00;0.00;;;;;;;21.75;47.39;100926.75;5082516;28;20024;-36
2021/06/03 00:27:33;;;;;;;0.73;0.30;;;;;;;21.77;47.31;100942.63;5079275;28;20454;-38
2021/06/03 00:29:59;;;;;;;0.00;0.00;;;;;;;21.78;47.38;100944.38;5083984;28;20333;-34
2021/06/03 00:32:25;;;;;;;0.23;0.23;;;;;;;21.76;47.50;100932.94;5085826;28;20035;-36
2021/06/03 00:34:51;;;;;;;0.00;0.00;;;;;;;21.73;47.50;100933.88;5085455;28;20028;-35
2021/06/03 00:37:17;;;;;;;0.17;0.17;;;;;;;21.76;47.52;100932.94;5082885;28;20027;-33
2021/06/03 00:39:43;;;;;;;0.20;0.00;;;;;;;21.73;47.56;100929.41;5076532;28;20043;-37
2021/06/03 00:42:09;;;;;;;0.17;0.17;;;;;;;21.76;47.43;100927.59;5085057;28;20016;-35
2021/06/03 00:44:36;;;;;;;1.10;1.00;;;;;;;21.72;47.54;100921.50;5085119;28;20457;-35
2021/06/03 00:47:02;;;;;;;0.00;0.00;;;;;;;21.72;47.54;100933.00;5083296;28;20029;-37
2021/06/03 00:49:28;;;;;;;0.00;0.00;;;;;;;21.72;47.49;100924.16;5087257;28;20284;-37
2021/06/03 00:51:55;;;;;;;2.10;0.33;;;;;;;21.70;47.54;100940.16;5083180;28;20281;-36
2021/06/03 00:54:21;;;;;;;4.47;0.35;;;;;;;21.67;47.57;100932.25;5081509;28;20043;-38
2021/06/03 00:56:48;;;;;;;0.00;0.00;;;;;;;21.42;47.45;100891.31;5082425;28;20469;-33
2021/06/03 00:59:14;;;;;;;4.97;0.33;;;;;;;21.71;47.53;100936.56;5082741;28;20031;-39
2021/06/03 01:01:40;;;;;;;0.47;0.10;;;;;;;21.78;47.36;100929.28;5081809;28;20648;-36
2021/06/03 01:04:07;;;;;;;0.00;0.00;;;;;;;21.74;47.36;100930.28;5082938;28;20161;-36
2021/06/03 01:06:33;;;;;;;0.00;0.00;;;;;;;21.88;47.07;100938.75;5084639;28;20029;-34
2021/06/03 01:09:06;;;;;;;1.50;0.10;;;;;;;21.82;47.13;100930.09;5083945;28;20027;-34
2021/06/03 01:11:40;;;;;;;0.00;0.00;;;;;;;21.85;46.91;100932.66;5085201;28;20024;-38
2021/06/03 01:14:13;;;;;;;0.00;0.00;;;;;;;21.93;46.85;100934.22;5086231;28;20067;-34
2021/06/03 01:16:40;;;;;;;0.22;0.10;;;;;;;21.87;46.92;100928.16;5085813;28;20085;-36
2021/06/03 01:19:16;;;;;;;0.00;0.00;;;;;;;21.76;47.11;100928.47;5069218;28;20036;-38
2021/06/03 01:21:54;;;;;;;0.00;0.00;;;;;;;21.77;46.98;100935.53;5086003;28;20070;-34
2021/06/03 01:24:28;;;;;;;0.00;0.00;;;;;;;21.75;47.04;100937.38;5077258;28;20033;-36
2021/06/03 01:26:57;;;;;;;0.30;0.30;;;;;;;21.73;47.10;100940.06;5085346;28;20037;-37
2021/06/03 01:29:24;;;;;;;0.20;0.20;;;;;;;21.63;47.23;100935.03;5085396;28;20020;-34
2021/06/03 01:31:51;;;;;;;0.08;0.08;;;;;;;21.64;47.27;100939.44;5089015;28;20031;-35
2021/06/03 01:34:18;;;;;;;0.00;0.00;;;;;;;21.57;47.42;100930.75;5085344;28;20044;-36
2021/06/03 01:36:45;;;;;;;0.05;0.05;;;;;;;21.52;47.37;100919.38;5084063;28;20047;-38
2021/06/03 01:39:11;;;;;;;3.87;0.17;;;;;;;21.56;47.51;100936.13;5085454;28;20535;-38
2021/06/03 01:41:37;;;;;;;0.00;0.00;;;;;;;21.54;47.27;100935.28;5088172;28;20450;-35
2021/06/03 01:44:04;;;;;;;1.50;0.30;;;;;;;21.52;47.39;100937.13;5082541;28;20450;-34
2021/06/03 01:46:30;;;;;;;0.52;0.38;;;;;;;21.55;47.15;100934.34;5083972;28;20277;-38
2021/06/03 01:48:57;;;;;;;0.00;0.00;;;;;;;21.49;47.22;100932.72;5089144;28;20058;-37
2021/06/03 01:51:23;;;;;;;0.30;0.27;;;;;;;21.47;47.28;100932.78;5070717;28;20261;-34
2021/06/03 01:53:49;;;;;;;0.00;0.00;;;;;;;21.46;46.97;100932.84;5089317;28;20029;-36
2021/06/03 01:56:16;;;;;;;0.20;0.20;;;;;;;21.45;47.26;100944.34;5084654;28;20035;-37
2021/06/03 01:58:42;;;;;;;0.28;0.20;;;;;;;21.47;47.12;100942.56;5084158;28;20024;-35
2021/06/03 02:01:08;;;;;;;0.08;0.08;;;;;;;21.42;47.25;100955.97;5102710;28;20058;-37
2021/06/03 02:03:35;;;;;;;1.38;0.65;;;;;;;21.48;47.26;100952.25;5084281;28;20042;-38
2021/06/03 02:06:01;;;;;;;0.10;0.10;;;;;;;21.48;47.36;100953.13;5088238;28;20139;-32
2021/06/03 02:08:27;;;;;;;0.00;0.00;;;;;;;21.50;47.35;100952.22;5080257;28;20382;-30
2021/06/03 02:10:54;;;;;;;0.13;0.13;;;;;;;21.50;47.40;100958.41;5076332;28;20369;-30
2021/06/03 02:13:25;;;;;;;7.23;0.50;;;;;;;21.47;47.52;100953.19;5081345;28;20032;-32
2021/06/03 02:15:54;;;;;;;0.10;0.10;;;;;;;21.48;47.53;100960.22;5074245;28;20036;-31
2021/06/03 02:18:20;;;;;;;0.40;0.20;;;;;;;21.48;47.58;100961.09;5074209;28;20024;-30
2021/06/03 02:20:47;;;;;;;0.03;0.03;;;;;;;21.48;47.54;100963.75;5065842;28;20025;-30
2021/06/03 02:23:15;;;;;;;0.00;0.00;;;;;;;21.46;47.59;100968.25;5077595;28;20032;-31
2021/06/03 02:25:41;;;;;;;0.03;0.03;;;;;;;21.47;47.61;100961.16;5082961;28;20111;-30
2021/06/03 02:28:08;;;;;;;0.67;0.40;;;;;;;21.48;47.78;100965.56;5082178;28;20090;-31
2021/06/03 02:30:34;;;;;;;0.20;0.10;;;;;;;21.46;47.60;100973.56;5079591;28;20118;-30
2021/06/03 02:33:00;;;;;;;0.00;0.00;;;;;;;21.50;47.64;100970.81;5081335;28;20035;-32
2021/06/03 02:35:27;;;;;;;0.20;0.20;;;;;;;21.48;47.58;100966.41;5079791;28;20036;-30
2021/06/03 02:37:53;;;;;;;0.10;0.10;;;;;;;21.51;47.54;100978.78;5082329;28;20027;-30
2021/06/03 02:40:22;;;;;;;2.33;0.30;;;;;;;21.48;47.36;100971.75;5083895;28;20031;-30
2021/06/03 02:42:48;;;;;;;0.00;0.00;;;;;;;21.47;47.48;100969.13;5081275;28;20035;-30
2021/06/03 02:45:16;;;;;;;0.13;0.13;;;;;;;21.46;47.53;100983.34;5083198;28;20032;-32
2021/06/03 02:47:43;;;;;;;0.15;0.15;;;;;;;21.46;47.55;100978.03;5079399;28;20140;-31
2021/06/03 02:50:13;;;;;;;0.93;0.63;;;;;;;21.36;47.52;100979.13;5074828;28;20020;-32
2021/06/03 02:52:39;;;;;;;0.13;0.13;;;;;;;21.41;47.46;100985.22;5075042;28;20020;-31
2021/06/03 02:55:07;;;;;;;0.05;0.05;;;;;;;21.40;47.40;100978.16;5076838;28;20036;-32
2021/06/03 02:57:33;;;;;;;0.20;0.20;;;;;;;21.37;47.46;100980.91;5080464;28;20032;-32
2021/06/03 03:00:00;;;;;;;0.47;0.47;;;;;;;21.27;47.45;100966.94;5082211;28;20036;-31
2021/06/03 03:02:26;;;;;;;1.13;0.22;;;;;;;21.37;47.04;100988.88;5081712;28;20029;-34
2021/06/03 03:04:52;;;;;;;0.40;0.20;;;;;;;21.35;47.12;100977.41;5078394;28;20059;-30
2021/06/03 03:07:18;;;;;;;0.10;0.10;;;;;;;21.32;47.27;100986.34;5080890;28;20039;-31
2021/06/03 03:09:45;;;;;;;0.40;0.40;;;;;;;21.30;47.20;100995.22;5074417;28;20039;-31
2021/06/03 03:12:11;;;;;;;0.15;0.15;;;;;;;21.27;47.16;100993.50;5076825;28;20111;-31
2021/06/03 03:14:37;;;;;;;7.82;0.28;;;;;;;21.23;47.31;100994.50;5078616;28;20032;-32
2021/06/03 03:17:04;;;;;;;1.30;0.20;;;;;;;21.19;47.27;101001.66;5082627;28;20460;-30
2021/06/03 03:19:31;;;;;;;0.60;0.45;;;;;;;21.18;47.29;100999.91;5079388;28;20402;-33
2021/06/03 03:21:57;;;;;;;;;;;;;;;21.15;47.39;101004.44;5083619;28;20043;-30
2021/06/03 03:24:23;;;;;;;0.10;0.10;;;;;;;21.15;47.27;101004.44;5082049;28;19912;-31
2021/06/03 03:26:49;;;;;;;0.00;0.00;;;;;;;21.17;47.04;101008.81;5081867;28;20023;-31
2021/06/03 03:29:15;;;;;;;0.50;0.50;;;;;;;21.24;47.12;101004.22;5079698;28;20481;-31
2021/06/03 03:31:41;;;;;;;0.10;0.00;;;;;;;21.17;47.04;101016.78;5080075;28;20036;-31
2021/06/03 03:34:08;;;;;;;0.10;0.10;;;;;;;21.15;47.03;101015.06;5078783;28;20024;-32
2021/06/03 03:36:34;;;;;;;0.20;0.20;;;;;;;21.08;47.38;101011.69;5078890;28;20028;-30
2021/06/03 03:39:00;;;;;;;0.40;0.07;;;;;;;21.08;47.25;101022.31;5082920;28;20020;-31
2021/06/03 03:41:26;;;;;;;0.40;0.00;;;;;;;21.09;46.96;101025.81;5079550;28;20030;-31
2021/06/03 03:43:52;;;;;;;0.10;0.10;;;;;;;21.11;47.27;101031.97;5079492;28;20056;-31
2021/06/03 03:46:18;;;;;;;0.30;0.30;;;;;;;21.04;47.00;101028.59;5082471;28;20032;-30
2021/06/03 03:48:45;;;;;;;0.20;0.20;;;;;;;21.01;46.68;101041.94;5082476;28;20016;-31
2021/06/03 03:51:13;;;;;;;0.10;0.10;;;;;;;21.00;46.99;101037.53;5082629;28;20039;-30
2021/06/03 03:53:40;;;;;;;0.00;0.00;;;;;;;20.97;47.01;101035.81;5080133;28;20095;-30
2021/06/03 03:56:06;;;;;;;;;;;;;;;20.93;47.35;101043.88;5083737;28;20082;-32
2021/06/03 03:58:36;;;;;;;0.20;0.20;;;;;;;20.90;47.19;101041.31;5082898;28;19908;-31
2021/06/03 04:01:03;;;;;;;1.00;0.13;;;;;;;20.90;47.23;101044.81;5081588;28;20139;-30
2021/06/03 04:03:29;;;;;;;0.75;0.20;;;;;;;20.86;47.10;101042.28;5081590;28;20040;-31
2021/06/03 04:05:55;;;;;;;0.10;0.10;;;;;;;20.87;47.14;101036.91;5079992;28;20033;-32
2021/06/03 04:08:21;;;;;;;0.57;0.40;;;;;;;20.88;47.07;101045.75;5082790;28;20478;-32
2021/06/03 04:10:48;;;;;;;0.32;0.22;;;;;;;20.86;47.01;101042.28;5081946;28;20016;-30
2021/06/03 04:13:14;;;;;;;6.50;0.90;;;;;;;20.84;46.94;101044.06;5083090;28;20470;-31
2021/06/03 04:15:40;;;;;;;0.03;0.00;;;;;;;20.84;46.99;101052.03;5081427;28;20031;-30
2021/06/03 04:18:06;;;;;;;1.50;0.43;;;;;;;20.81;47.05;101060.09;5082393;28;20735;-30
2021/06/03 04:20:34;;;;;;;0.00;0.00;;;;;;;20.80;47.29;101059.22;5082588;28;20036;-31
2021/06/03 04:23:01;;;;;;;0.00;0.00;;;;;;;20.79;47.17;101059.22;5079610;28;20032;-32
2021/06/03 04:25:27;;;;;;;0.00;0.00;;;;;;;20.76;47.21;101064.63;5082619;28;20020;-31
2021/06/03 04:27:54;;;;;;;0.00;0.00;;;;;;;20.76;47.10;101061.97;5081629;28;20042;-32
2021/06/03 04:30:22;;;;;;;0.00;0.00;;;;;;;20.68;46.95;101057.69;5080201;28;20025;-31
2021/06/03 04:32:48;;;;;;;0.00;0.00;;;;;;;20.73;46.90;101065.56;5080393;28;20369;-30
2021/06/03 04:35:17;;;;;;;0.00;0.00;;;;;;;20.70;47.16;101077.13;5080266;28;20047;-30
2021/06/03 04:37:44;;;;;;;0.28;0.22;;;;;;;20.76;46.97;101069.94;5079258;28;20116;-32
2021/06/03 04:40:11;;;;;;;0.08;0.08;;;;;;;20.57;47.19;101070.31;5075747;28;20491;-30
2021/06/03 04:42:38;;;;;;;0.00;0.00;;;;;;;20.42;47.36;101073.25;5095919;28;20040;-31
2021/06/03 04:45:05;;;;;;;0.00;0.00;;;;;;;20.46;47.17;101077.56;5078737;28;20043;-30
2021/06/03 04:47:32;;;;;;;0.40;0.35;;;;;;;20.47;47.25;101074.06;5082695;28;20099;-31
2021/06/03 04:49:58;;;;;;;0.20;0.10;;;;;;;20.50;47.46;101067.78;5083258;28;20107;-30
2021/06/03 04:52:31;;;;;;;0.00;0.00;;;;;;;20.45;47.48;101068.72;5085444;28;20042;-31
2021/06/03 04:55:09;;;;;;;2.45;0.45;;;;;;;20.54;47.13;101075.66;5085709;28;20035;-30
2021/06/03 04:57:35;;;;;;;0.30;0.10;;;;;;;20.52;47.01;101069.53;5085875;28;20391;-31
2021/06/03 05:00:02;;;;;;;0.20;0.20;;;;;;;20.52;46.98;101071.31;5086219;28;20453;-30
2021/06/03 05:02:28;;;;;;;0.15;0.00;;;;;;;20.50;47.17;101071.31;5085795;28;20036;-30
2021/06/03 05:04:54;;;;;;;0.00;0.00;;;;;;;20.46;47.24;101070.50;5086068;28;20024;-31
2021/06/03 05:07:21;;;;;;;0.00;0.00;;;;;;;20.42;47.45;101067.94;5084393;28;20047;-32
2021/06/03 05:09:47;;;;;;;0.10;0.10;;;;;;;20.48;47.30;101070.50;5083351;28;20090;-31
2021/06/03 05:12:13;;;;;;;0.20;0.20;;;;;;;20.51;46.97;101069.53;5083301;28;20035;-31
2021/06/03 05:14:39;;;;;;;0.80;0.10;;;;;;;20.46;47.08;101072.25;5083661;28;20025;-31
2021/06/03 05:17:06;;;;;;;0.00;0.00;;;;;;;20.40;47.57;101073.25;5084268;28;20044;-31
2021/06/03 05:19:33;;;;;;;0.13;0.13;;;;;;;20.46;47.14;101073.16;5083031;28;20028;-30
2021/06/03 05:21:59;;;;;;;0.00;0.00;;;;;;;20.44;47.19;101074.06;5086138;28;20020;-30
2021/06/03 05:24:25;;;;;;;0.00;0.00;;;;;;;20.36;47.31;101068.91;5084115;28;20027;-30
2021/06/03 05:26:51;;;;;;;0.73;0.67;;;;;;;20.41;47.10;101068.81;5080398;28;20458;-31
2021/06/03 05:29:18;;;;;;;0.03;0.03;;;;;;;20.43;47.07;101073.19;5080893;28;20076;-30
2021/06/03 05:31:44;;;;;;;0.00;0.00;;;;;;;20.37;47.11;101072.47;5082731;28;20043;-30
2021/06/03 05:34:11;;;;;;;0.00;0.00;;;;;;;20.34;47.19;101075.16;5081884;28;20442;-32
2021/06/03 05:36:37;;;;;;;;;;;;;;;20.31;47.30;101073.44;5082977;28;20119;-32
2021/06/03 05:39:04;;;;;;;0.00;0.00;;;;;;;20.29;47.28;101077.03;5082527;28;20010;-31
2021/06/03 05:41:31;;;;;;;0.10;0.10;;;;;;;20.32;47.25;101069.00;5099683;28;20400;-31
2021/06/03 05:43:57;;;;;;;0.30;0.30;;;;;;;20.35;47.17;101063.63;5097058;28;20462;-30
2021/06/03 05:46:23;;;;;;;0.00;0.00;;;;;;;20.27;47.40;101060.25;5082050;28;20367;-31
2021/06/03 05:48:50;;;;;;;0.00;0.00;;;;;;;20.24;47.42;101068.28;5082940;28;20093;-30
2021/06/03 05:51:17;;;;;;;0.55;0.10;;;;;;;20.24;47.38;101070.94;5086141;28;20020;-32
2021/06/03 05:53:43;;;;;;;0.00;0.00;;;;;;;20.28;47.15;101067.31;5081011;28;20115;-32
2021/06/03 05:56:09;;;;;;;0.00;0.00;;;;;;;20.33;47.14;101061.03;5082928;28;20028;-31
2021/06/03 05:58:35;;;;;;;0.00;0.00;;;;;;;20.26;47.13;101061.16;5082705;28;20028;-31
2021/06/03 06:01:01;;;;;;;0.07;0.07;;;;;;;20.19;47.32;101050.69;5079358;28;20515;-30
2021/06/03 06:03:41;;;;;;;0.00;0.00;;;;;;;20.24;47.31;101057.69;5080341;28;20043;-31
2021/06/03 06:06:23;;;;;;;0.00;0.00;;;;;;;20.26;47.39;101055.84;5083035;28;20304;-31
2021/06/03 06:08:50;;;;;;;0.47;0.32;;;;;;;20.23;47.31;101056.81;5081129;28;20035;-30
2021/06/03 06:11:16;;;;;;;0.00;0.00;;;;;;;20.19;47.40;101053.31;5082898;28;20038;-32
2021/06/03 06:13:43;;;;;;;0.00;0.00;;;;;;;20.15;47.48;101046.31;5079253;28;20028;-31
2021/06/03 06:16:10;;;;;;;0.52;0.10;;;;;;;20.16;47.28;101047.19;5081221;28;20370;-31
2021/06/03 06:18:37;;;;;;;0.00;0.00;;;;;;;20.21;47.21;101045.31;5082007;28;20032;-30
2021/06/03 06:21:04;;;;;;;0.00;0.00;;;;;;;20.17;47.25;101051.59;5082842;28;20035;-30
2021/06/03 06:23:32;;;;;;;0.00;0.00;;;;;;;20.21;47.23;101061.25;5080604;28;20025;-30
2021/06/03 06:25:58;;;;;;;0.00;0.00;;;;;;;20.17;47.16;101059.56;5081569;28;20040;-32
2021/06/03 06:28:25;;;;;;;0.00;0.00;;;;;;;20.12;47.47;101045.50;5080612;28;20104;-31
2021/06/03 06:30:52;;;;;;;0.00;0.00;;;;;;;20.14;47.24;101060.50;5080057;28;20032;-30
2021/06/03 06:33:18;;;;;;;0.00;0.00;;;;;;;20.19;47.20;101057.75;5079635;28;20427;-30
2021/06/03 06:35:48;;;;;;;0.00;0.00;;;;;;;20.08;47.49;101057.97;5084014;28;20035;-32
2021/06/03 06:38:14;;;;;;;3.33;0.32;;;;;;;20.15;47.41;101059.59;5081245;28;20027;-31
2021/06/03 06:40:40;;;;;;;0.00;0.00;;;;;;;20.06;47.52;101065.06;5083680;28;20033;-31
2021/06/03 06:43:06;;;;;;;0.17;0.17;;;;;;;20.15;47.26;101064.91;5082331;28;20028;-31
2021/06/03 06:45:33;;;;;;;0.10;0.10;;;;;;;20.07;47.33;101064.16;5081180;28;20024;-31
2021/06/03 06:47:59;;;;;;;0.00;0.00;;;;;;;20.04;47.51;101058.91;5082497;28;20153;-30
2021/06/03 06:50:26;;;;;;;0.00;0.00;;;;;;;20.11;47.26;101054.38;5082831;28;20112;-31
2021/06/03 06:52:53;;;;;;;0.00;0.00;;;;;;;20.07;47.37;101064.16;5080661;28;20081;-30
2021/06/03 06:55:19;;;;;;;;;;;;;;;20.10;47.37;101063.25;5081150;28;20039;-32
2021/06/03 06:57:45;;;;;;;0.10;0.10;;;;;;;20.05;47.40;101060.66;5079595;28;19912;-30
2021/06/03 07:00:12;;;;;;;0.00;0.00;;;;;;;20.07;47.34;101071.22;5079717;28;20514;-31
2021/06/03 07:02:38;;;;;;;;;;;;;;;20.09;47.34;101072.09;5081435;28;20428;-31
2021/06/03 07:05:07;;;;;;;0.10;0.10;;;;;;;20.08;47.36;101057.06;5079417;28;20018;-31
2021/06/03 07:07:33;;;;;;;0.00;0.00;;;;;;;20.06;47.11;101056.22;5079345;28;20039;-30
2021/06/03 07:10:00;;;;;;;0.00;0.00;;;;;;;20.04;47.41;101058.91;5079646;28;20063;-30
2021/06/03 07:12:26;;;;;;;0.00;0.00;;;;;;;20.03;47.50;101050.97;5083595;28;20389;-30
2021/06/03 07:14:52;;;;;;;0.00;0.00;;;;;;;20.07;47.37;101052.66;5078842;28;20476;-32
2021/06/03 07:17:18;;;;;;;0.03;0.03;;;;;;;20.10;47.37;101048.19;5078627;28;20097;-32
2021/06/03 07:19:44;;;;;;;0.00;0.00;;;;;;;20.11;47.30;101049.94;5079901;28;20031;-32
2021/06/03 07:22:11;;;;;;;0.10;0.10;;;;;;;20.09;47.15;101054.41;5083763;28;20105;-30
2021/06/03 07:24:40;;;;;;;0.00;0.00;;;;;;;20.06;47.52;101046.50;5077259;28;20332;-30
2021/06/03 07:27:07;;;;;;;0.00;0.00;;;;;;;20.08;47.39;101050.00;5081617;28;20403;-31
2021/06/03 07:29:33;;;;;;;0.03;0.00;;;;;;;20.09;47.40;101049.09;5079903;28;20109;-32
2021/06/03 07:32:00;;;;;;;0.00;0.00;;;;;;;20.10;47.32;101049.97;5080057;28;20048;-31
2021/06/03 07:34:27;;;;;;;0.00;0.00;;;;;;;20.09;47.39;101045.59;5078797;28;20405;-30
2021/06/03 07:36:53;;;;;;;;;;;;;;;20.09;47.51;101048.22;5081850;28;20033;-31
2021/06/03 07:39:21;;;;;;;0.15;0.10;;;;;;;20.09;47.49;101053.53;5080873;28;19923;-30
2021/06/03 07:41:47;;;;;;;0.00;0.00;;;;;;;20.09;47.67;101043.81;5077385;28;20046;-32
2021/06/03 07:44:13;;;;;;;0.17;0.17;;;;;;;20.13;47.77;101049.91;5081939;28;20029;-30
2021/06/03 07:46:39;;;;;;;0.20;0.20;;;;;;;20.10;47.69;101048.19;5077850;28;20059;-30
2021/06/03 07:49:07;;;;;;;0.00;0.00;;;;;;;20.10;47.67;101044.66;5077932;28;20043;-32
2021/06/03 07:51:33;;;;;;;2.40;0.43;;;;;;;20.06;47.77;101046.50;5079963;28;20059;-33
2021/06/03 07:53:59;;;;;;;0.03;0.03;;;;;;;20.05;47.79;101044.75;5079496;28;20028;-31
2021/06/03 07:56:25;;;;;;;3.00;0.23;;;;;;;20.09;47.68;101045.59;5081801;28;20416;-31
2021/06/03 07:58:52;;;;;;;0.20;0.10;;;;;;;20.07;47.63;101048.25;5079052;28;20078;-31
2021/06/03 08:01:18;;;;;;;0.00;0.00;;;;;;;20.07;47.54;101037.63;5077510;28;20032;-30
2021/06/03 08:03:44;;;;;;;0.23;0.23;;;;;;;20.06;47.67;101035.03;5082176;28;20043;-30
2021/06/03 08:06:11;;;;;;;0.00;0.00;;;;;;;20.08;47.57;101033.19;5081280;28;20025;-30
2021/06/03 08:08:37;;;;;;;10.27;0.52;;;;;;;20.09;47.74;101041.16;5080863;28;20032;-30
2021/06/03 08:11:05;;;;;;;0.45;0.10;;;;;;;20.11;47.83;101035.81;5078557;28;20566;-34
2021/06/03 08:13:31;;;;;;;0.10;0.10;;;;;;;20.11;47.74;101039.31;5078983;28;20514;-31
2021/06/03 08:15:57;;;;;;;0.38;0.17;;;;;;;20.08;47.62;101047.38;5081332;28;20511;-30
2021/06/03 08:18:24;;;;;;;0.20;0.20;;;;;;;20.05;47.93;101046.53;5079221;28;20074;-30
2021/06/03 08:20:55;;;;;;;0.00;0.00;;;;;;;20.02;47.89;101047.44;5080279;28;20032;-31
2021/06/03 08:23:21;;;;;;;0.10;0.10;;;;;;;20.03;47.83;101041.25;5080495;28;20115;-30
2021/06/03 08:25:47;;;;;;;0.03;0.03;;;;;;;20.02;47.89;101042.16;5082329;28;20025;-30
2021/06/03 08:28:14;;;;;;;0.10;0.10;;;;;;;20.00;47.88;101043.97;5079083;28;20016;-32
2021/06/03 08:30:40;;;;;;;0.00;0.00;;;;;;;20.00;47.74;101043.97;5080420;28;20103;-31
2021/06/03 08:33:07;;;;;;;0.10;0.10;;;;;;;19.98;48.14;101047.53;5078282;28;20061;-31
2021/06/03 08:35:33;;;;;;;0.15;0.15;;;;;;;19.97;47.76;101051.09;5079807;28;20062;-32
2021/06/03 08:38:03;;;;;;;0.00;0.00;;;;;;;19.95;47.81;101046.69;5080292;28;20399;-31
2021/06/03 08:40:53;;;;;;;0.00;0.00;;;;;;;19.97;47.82;101049.31;5078780;28;20024;-33
2021/06/03 08:43:22;;;;;;;0.00;0.00;;;;;;;19.92;47.75;101044.09;5072292;28;20048;-30
2021/06/03 08:45:48;;;;;;;0.00;0.00;;;;;;;19.93;47.65;101042.31;5081130;28;20024;-31
2021/06/03 08:48:15;;;;;;;0.00;0.00;;;;;;;19.90;47.59;101045.91;5077813;28;20047;-30
2021/06/03 08:50:43;;;;;;;0.00;0.00;;;;;;;19.89;47.74;101041.53;5078431;28;21174;-31
2021/06/03 08:53:09;;;;;;;0.00;0.00;;;;;;;19.86;47.68;101035.38;5078056;28;20288;-30
2021/06/03 08:58:22;;;;;;;0.00;0.00;;;;;;;19.80;47.78;101030.22;5064504;28;20034;-32
2021/06/03 09:00:49;;;;;;;3.63;0.20;;;;;;;19.80;47.90;101024.91;5080085;28;20035;-30
2021/06/03 09:03:15;;;;;;;0.00;0.00;;;;;;;19.86;47.70;101027.44;5082008;28;20077;-30
2021/06/03 09:05:41;;;;;;;0.10;0.10;;;;;;;19.84;47.62;101024.78;5078394;28;20031;-29
2021/06/03 09:08:26;;;;;;;0.33;0.20;;;;;;;19.85;47.64;101023.91;5080399;28;20511;-30
2021/06/03 09:11:19;;;;;;;0.03;0.03;;;;;;;19.80;47.79;101020.47;5079439;28;20280;-30
2021/06/03 09:13:49;;;;;;;0.00;0.00;;;;;;;19.76;47.75;101017.91;5077791;28;20040;-31
2021/06/03 09:16:19;;;;;;;0.00;0.00;;;;;;;19.74;47.97;101014.38;5076777;28;20437;-31
2021/06/03 09:18:48;;;;;;;0.00;0.00;;;;;;;19.74;47.88;101014.38;5077936;28;20443;-30
2021/06/03 09:21:16;;;;;;;0.00;0.00;;;;;;;19.73;47.95;101010.00;5082141;28;20449;-31
2021/06/03 09:24:05;;;;;;;0.10;0.00;;;;;;;19.71;47.76;101010.03;5080584;28;20389;-30
2021/06/03 09:26:34;;;;;;;0.00;0.00;;;;;;;19.72;47.91;100998.53;5080986;28;20020;-33
2021/06/03 09:29:01;;;;;;;0.00;0.00;;;;;;;19.72;47.76;101006.47;5077808;28;20024;-30
2021/06/03 09:31:29;;;;;;;0.00;0.00;;;;;;;19.79;47.71;100999.28;5076630;28;20047;-31
2021/06/03 09:33:57;;;;;;;0.00;0.00;;;;;;;19.81;47.53;101002.78;5079131;28;20024;-30
2021/06/03 09:36:31;;;;;;;0.00;0.00;;;;;;;19.78;47.71;100992.22;5080473;28;20036;-30
2021/06/03 09:39:06;;;;;;;0.10;0.00;;;;;;;19.65;47.96;101003.06;5082003;28;20024;-30
2021/06/03 09:41:32;;;;;;;0.20;0.15;;;;;;;19.68;47.77;100995.03;5082901;28;20028;-30
2021/06/03 09:44:05;;;;;;;0.00;0.00;;;;;;;19.58;47.82;100977.53;5080483;28;20567;-30
2021/06/03 09:46:56;;;;;;;0.00;0.00;;;;;;;19.68;47.66;100997.69;5085526;28;20074;-30
2021/06/03 09:49:24;;;;;;;12.85;0.10;;;;;;;19.66;47.79;101004.81;5087767;28;20036;-32
2021/06/03 09:51:53;;;;;;;5.47;0.10;;;;;;;19.64;47.95;101003.94;5081645;28;20126;-32
2021/06/03 09:54:20;;;;;;;0.00;0.00;;;;;;;19.60;47.90;101002.25;5082939;28;20055;-31
2021/06/03 09:56:58;;;;;;;0.00;0.00;;;;;;;19.69;47.71;100999.44;5082038;28;20032;-32
2021/06/03 09:59:34;;;;;;;0.00;0.00;;;;;;;19.66;47.91;100996.84;5082829;28;20024;-31
2021/06/03 10:02:10;;;;;;;0.00;0.00;;;;;;;19.72;47.59;101003.81;5083806;28;20041;-32
2021/06/03 10:04:44;;;;;;;0.00;0.00;;;;;;;19.63;47.72;100996.91;5100272;28;20484;-30
2021/06/03 10:07:18;;;;;;;0.10;0.10;;;;;;;19.58;47.97;100996.06;5081056;28;20108;-30
2021/06/03 10:10:09;;;;;;;0.00;0.00;;;;;;;19.56;47.96;100992.59;5083274;28;20055;-30
2021/06/03 10:12:43;;;;;;;0.00;0.00;;;;;;;19.61;47.86;101001.38;5084572;28;20028;-30
2021/06/03 10:15:24;;;;;;;0.57;0.15;;;;;;;19.55;47.86;101004.06;5082544;28;20036;-31
2021/06/03 10:18:05;;;;;;;0.00;0.00;;;;;;;19.55;47.86;101000.53;5082781;28;20031;-30
2021/06/03 10:20:37;;;;;;;0.00;0.00;;;;;;;19.57;47.89;100999.63;5083106;28;20039;-30
2021/06/03 10:23:04;;;;;;;0.00;0.00;;;;;;;19.62;47.77;100999.59;5083711;28;20119;-30
2021/06/03 10:25:32;;;;;;;0.10;0.10;;;;;;;19.53;47.69;100984.69;5081872;28;20021;-30
2021/06/03 10:28:09;;;;;;;0.00;0.00;;;;;;;19.60;47.68;100999.59;5080503;28;20555;-30
2021/06/03 10:30:44;;;;;;;0.08;0.08;;;;;;;19.61;47.50;100996.06;5080008;28;20468;-31
2021/06/03 10:33:12;;;;;;;0.00;0.00;;;;;;;19.49;47.86;100990.94;5080880;28;20071;-30
2021/06/03 10:35:40;;;;;;;0.00;0.00;;;;;;;19.48;48.12;100997.13;5081444;28;20097;-31
2021/06/03 10:38:07;;;;;;;0.00;0.00;;;;;;;19.44;47.92;101001.59;5083158;28;20404;-32
2021/06/03 10:40:35;;;;;;;0.00;0.00;;;;;;;19.42;48.05;101000.78;5084241;28;20158;-32
2021/06/03 10:43:02;;;;;;;0.00;0.00;;;;;;;19.41;48.02;101000.78;5081547;28;20067;-31
2021/06/03 10:45:29;;;;;;;0.00;0.00;;;;;;;19.38;48.19;100998.19;5082504;28;20093;-32
2021/06/03 10:47:55;;;;;;;;;;;;;;;19.37;48.18;100992.03;5082410;28;20080;-33
2021/06/03 10:50:29;;;;;;;4.28;0.35;;;;;;;19.36;48.27;100992.03;5079974;28;19956;-30
2021/06/03 10:52:55;;;;;;;0.00;0.00;;;;;;;19.59;47.70;100979.28;5083422;28;20024;-30
2021/06/03 10:55:32;;;;;;;0.00;0.00;;;;;;;19.52;47.81;100992.66;5079794;28;20034;-30
2021/06/03 10:58:02;;;;;;;0.00;0.00;;;;;;;19.51;47.62;100982.94;5079531;28;20115;-30
2021/06/03 11:00:31;;;;;;;0.10;0.10;;;;;;;19.44;47.92;100982.19;5082030;28;20020;-31
2021/06/03 11:03:00;;;;;;;0.00;0.00;;;;;;;19.37;47.89;100978.78;5081403;28;20025;-31
2021/06/03 11:05:43;;;;;;;0.10;0.03;;;;;;;19.38;48.04;100975.22;5079975;28;20020;-30
2021/06/03 11:08:34;;;;;;;0.00;0.00;;;;;;;19.37;48.05;100972.56;5081626;28;20049;-30
2021/06/03 11:11:13;;;;;;;0.00;0.00;;;;;;;19.33;48.35;100973.56;5083105;28;20177;-31
2021/06/03 11:14:06;;;;;;;0.00;0.00;;;;;;;19.34;48.04;100970.00;5081245;28;20090;-31
2021/06/03 11:16:35;;;;;;;0.00;0.00;;;;;;;19.25;48.24;100973.66;5082033;28;20102;-30
2021/06/03 11:19:01;;;;;;;0.00;0.00;;;;;;;19.52;47.71;100974.13;5078052;28;20036;-30
2021/06/03 11:21:37;;;;;;;0.00;0.00;;;;;;;19.50;47.50;100974.13;5082288;28;20028;-31
2021/06/03 11:24:07;;;;;;;0.00;0.00;;;;;;;19.41;47.55;100982.22;5080936;28;20031;-31
2021/06/03 11:26:43;;;;;;;0.00;0.00;;;;;;;19.39;47.69;100973.44;5079991;28;20032;-31
2021/06/03 11:29:14;;;;;;;0.00;0.00;;;;;;;19.21;47.77;100955.22;5080452;28;20028;-30
2021/06/03 11:31:41;;;;;;;0.00;0.00;;;;;;;19.36;48.02;100984.09;5079739;28;20464;-31
2021/06/03 11:34:08;;;;;;;0.03;0.00;;;;;;;19.32;47.90;100980.63;5081329;28;20028;-30